sensor_id;sensor_type;location;lat;lon;timestamp;pressure;altitude;pressure_sealevel;temperature;humidity
40650;BME280;26342;42.826;23.992;2024-02-28T00:00:27;95623.13;;;6.05;100.00
40650;BME280;26342;42.826;23.992;2024-02-28T00:02:53;95626.38;;;6.07;100.00
40650;BME280;26342;42.826;23.992;2024-02-28T00:05:18;95621.28;;;6.05;100.00
40650;BME280;26342;42.826;23.992;2024-02-28T00:07:44;95613.06;;;5.95;100.00
40650;BME280;26342;42.826;23.992;2024-02-28T00:10:11;95633.72;;;6.05;100.00
40650;BME280;26342;42.826;23.992;2024-02-28T00:12:36;95638.56;;;6.08;100.00
40650;BME280;26342;42.826;23.992;2024-02-28T00:15:02;95643.53;;;6.04;100.00
40650;BME280;26342;42.826;23.992;2024-02-28T00:17:27;95637.47;;;5.97;100.00
40650;BME280;26342;42.826;23.992;2024-02-28T00:19:52;95624.50;;;5.89;100.00
40650;BME280;26342;42.826;23.992;2024-02-28T00:22:18;95637.13;;;5.94;100.00
40650;BME280;26342;42.826;23.992;2024-02-28T00:24:44;95638.38;;;5.91;100.00
40650;BME280;26342;42.826;23.992;2024-02-28T00:27:09;95641.63;;;5.93;100.00
40650;BME280;26342;42.826;23.992;2024-02-28T00:29:34;95634.69;;;5.92;100.00
40650;BME280;26342;42.826;23.992;2024-02-28T00:32:00;95636.72;;;5.90;100.00
40650;BME280;26342;42.826;23.992;2024-02-28T00:34:25;95638.78;;;5.88;100.00
40650;BME280;26342;42.826;23.992;2024-02-28T00:36:51;95647.53;;;5.88;100.00
40650;BME280;26342;42.826;23.992;2024-02-28T00:39:16;95645.91;;;5.87;100.00
40650;BME280;26342;42.826;23.992;2024-02-28T00:41:42;95645.13;;;5.87;100.00
40650;BME280;26342;42.826;23.992;2024-02-28T00:44:07;95644.53;;;5.85;100.00
40650;BME280;26342;42.826;23.992;2024-02-28T00:46:33;95656.34;;;5.82;100.00
40650;BME280;26342;42.826;23.992;2024-02-28T00:48:58;95654.00;;;5.74;100.00
40650;BME280;26342;42.826;23.992;2024-02-28T00:51:23;95651.13;;;5.76;100.00
40650;BME280;26342;42.826;23.992;2024-02-28T00:53:49;95647.53;;;5.70;100.00
40650;BME280;26342;42.826;23.992;2024-02-28T00:56:14;95651.41;;;5.68;100.00
40650;BME280;26342;42.826;23.992;2024-02-28T00:58:40;95656.13;;;5.66;100.00
40650;BME280;26342;42.826;23.992;2024-02-28T01:01:06;95660.59;;;5.65;100.00
40650;BME280;26342;42.826;23.992;2024-02-28T01:03:32;95659.84;;;5.58;100.00
40650;BME280;26342;42.826;23.992;2024-02-28T01:05:57;95658.47;;;5.55;100.00
40650;BME280;26342;42.826;23.992;2024-02-28T01:08:26;95655.59;;;5.57;100.00
40650;BME280;26342;42.826;23.992;2024-02-28T01:10:51;95645.47;;;5.54;100.00
40650;BME280;26342;42.826;23.992;2024-02-28T01:13:16;95658.19;;;5.64;100.00
40650;BME280;26342;42.826;23.992;2024-02-28T01:15:42;95664.50;;;5.63;100.00
40650;BME280;26342;42.826;23.992;2024-02-28T01:18:08;95663.19;;;5.53;100.00
40650;BME280;26342;42.826;23.992;2024-02-28T01:20:33;95662.56;;;5.51;100.00
40650;BME280;26342;42.826;23.992;2024-02-28T01:22:59;95659.25;;;5.38;100.00
40650;BME280;26342;42.826;23.992;2024-02-28T01:25:24;95666.78;;;5.34;100.00
40650;BME280;26342;42.826;23.992;2024-02-28T01:27:50;95653.78;;;5.32;100.00
40650;BME280;26342;42.826;23.992;2024-02-28T01:30:15;95658.03;;;5.33;100.00
40650;BME280;26342;42.826;23.992;2024-02-28T01:32:40;95659.88;;;5.33;100.00
40650;BME280;26342;42.826;23.992;2024-02-28T01:35:08;95663.97;;;5.29;100.00
40650;BME280;26342;42.826;23.992;2024-02-28T01:37:33;95667.47;;;5.29;100.00
40650;BME280;26342;42.826;23.992;2024-02-28T01:39:59;95673.75;;;5.28;100.00
40650;BME280;26342;42.826;23.992;2024-02-28T01:42:24;95677.06;;;5.24;100.00
40650;BME280;26342;42.826;23.992;2024-02-28T01:44:49;95675.66;;;5.21;100.00
40650;BME280;26342;42.826;23.992;2024-02-28T01:47:15;95674.00;;;5.20;100.00
40650;BME280;26342;42.826;23.992;2024-02-28T01:49:41;95679.13;;;5.22;100.00
40650;BME280;26342;42.826;23.992;2024-02-28T01:52:08;95662.63;;;5.20;100.00
40650;BME280;26342;42.826;23.992;2024-02-28T01:54:35;95677.09;;;5.17;100.00
40650;BME280;26342;42.826;23.992;2024-02-28T01:57:01;95684.19;;;5.23;100.00
40650;BME280;26342;42.826;23.992;2024-02-28T01:59:27;95678.31;;;5.21;100.00
40650;BME280;26342;42.826;23.992;2024-02-28T02:01:54;95682.41;;;5.17;100.00
40650;BME280;26342;42.826;23.992;2024-02-28T02:04:20;95684.22;;;5.17;100.00
40650;BME280;26342;42.826;23.992;2024-02-28T02:06:46;95676.53;;;5.15;100.00
40650;BME280;26342;42.826;23.992;2024-02-28T02:09:12;95682.06;;;5.07;100.00
40650;BME280;26342;42.826;23.992;2024-02-28T02:11:38;95680.47;;;5.06;100.00
40650;BME280;26342;42.826;23.992;2024-02-28T02:14:04;95686.13;;;5.10;100.00
40650;BME280;26342;42.826;23.992;2024-02-28T02:16:29;95685.31;;;5.09;100.00
40650;BME280;26342;42.826;23.992;2024-02-28T02:18:55;95678.47;;;4.95;100.00
40650;BME280;26342;42.826;23.992;2024-02-28T02:21:23;95696.50;;;5.04;100.00
40650;BME280;26342;42.826;23.992;2024-02-28T02:23:49;95688.41;;;5.06;100.00
40650;BME280;26342;42.826;23.992;2024-02-28T02:26:15;95701.00;;;5.04;100.00
40650;BME280;26342;42.826;23.992;2024-02-28T02:28:40;95694.31;;;5.01;100.00
40650;BME280;26342;42.826;23.992;2024-02-28T02:31:06;95694.69;;;5.05;100.00
40650;BME280;26342;42.826;23.992;2024-02-28T02:33:31;95691.44;;;5.03;100.00
40650;BME280;26342;42.826;23.992;2024-02-28T02:35:57;95695.94;;;5.02;100.00
40650;BME280;26342;42.826;23.992;2024-02-28T02:38:22;95700.41;;;5.02;100.00
40650;BME280;26342;42.826;23.992;2024-02-28T02:40:51;95695.13;;;5.02;100.00
40650;BME280;26342;42.826;23.992;2024-02-28T02:43:17;95698.19;;;4.99;100.00
40650;BME280;26342;42.826;23.992;2024-02-28T02:45:42;95691.44;;;5.03;100.00
40650;BME280;26342;42.826;23.992;2024-02-28T02:48:08;95691.34;;;4.91;100.00
40650;BME280;26342;42.826;23.992;2024-02-28T02:50:34;95691.69;;;4.95;100.00
40650;BME280;26342;42.826;23.992;2024-02-28T02:52:59;95696.59;;;4.98;100.00
40650;BME280;26342;42.826;23.992;2024-02-28T02:55:25;95697.41;;;4.98;100.00
40650;BME280;26342;42.826;23.992;2024-02-28T02:57:50;95697.53;;;5.03;100.00
40650;BME280;26342;42.826;23.992;2024-02-28T03:00:16;95698.56;;;5.02;100.00
40650;BME280;26342;42.826;23.992;2024-02-28T03:02:41;95701.69;;;4.93;100.00
40650;BME280;26342;42.826;23.992;2024-02-28T03:05:07;95696.16;;;5.01;100.00
40650;BME280;26342;42.826;23.992;2024-02-28T03:07:32;95703.28;;;5.00;100.00
40650;BME280;26342;42.826;23.992;2024-02-28T03:09:58;95708.59;;;4.94;100.00
40650;BME280;26342;42.826;23.992;2024-02-28T03:12:24;95708.81;;;4.92;100.00
40650;BME280;26342;42.826;23.992;2024-02-28T03:14:49;95708.41;;;4.89;100.00
40650;BME280;26342;42.826;23.992;2024-02-28T03:17:14;95705.38;;;4.92;100.00
40650;BME280;26342;42.826;23.992;2024-02-28T03:19:43;95717.34;;;4.94;100.00
40650;BME280;26342;42.826;23.992;2024-02-28T03:22:09;95714.69;;;4.94;100.00
40650;BME280;26342;42.826;23.992;2024-02-28T03:24:34;95714.91;;;4.93;100.00
40650;BME280;26342;42.826;23.992;2024-02-28T03:27:01;95714.66;;;5.01;100.00
40650;BME280;26342;42.826;23.992;2024-02-28T03:29:27;95705.91;;;5.00;100.00
40650;BME280;26342;42.826;23.992;2024-02-28T03:31:52;95699.59;;;5.01;100.00
40650;BME280;26342;42.826;23.992;2024-02-28T03:34:18;95702.28;;;4.95;100.00
40650;BME280;26342;42.826;23.992;2024-02-28T03:36:44;95717.34;;;4.94;100.00
40650;BME280;26342;42.826;23.992;2024-02-28T03:39:09;95714.50;;;4.89;100.00
40650;BME280;26342;42.826;23.992;2024-02-28T03:41:35;95718.59;;;4.92;100.00
40650;BME280;26342;42.826;23.992;2024-02-28T03:44:00;95714.50;;;4.89;100.00
40650;BME280;26342;42.826;23.992;2024-02-28T03:46:26;95720.03;;;4.88;100.00
40650;BME280;26342;42.826;23.992;2024-02-28T03:48:51;95713.28;;;4.92;100.00
40650;BME280;26342;42.826;23.992;2024-02-28T03:51:16;95710.69;;;4.85;100.00
40650;BME280;26342;42.826;23.992;2024-02-28T03:53:42;95718.59;;;4.92;100.00
40650;BME280;26342;42.826;23.992;2024-02-28T03:56:07;95712.91;;;4.88;100.00
40650;BME280;26342;42.826;23.992;2024-02-28T03:58:33;95711.28;;;4.87;100.00
40650;BME280;26342;42.826;23.992;2024-02-28T04:00:58;95706.00;;;4.87;100.00
40650;BME280;26342;42.826;23.992;2024-02-28T04:03:24;95699.53;;;4.83;100.00
40650;BME280;26342;42.826;23.992;2024-02-28T04:05:49;95708.59;;;4.94;100.00
40650;BME280;26342;42.826;23.992;2024-02-28T04:08:15;95702.31;;;4.88;100.00
40650;BME280;26342;42.826;23.992;2024-02-28T04:10:40;95705.63;;;4.84;100.00
40650;BME280;26342;42.826;23.992;2024-02-28T04:13:06;95708.66;;;4.81;100.00
40650;BME280;26342;42.826;23.992;2024-02-28T04:15:32;95708.28;;;4.77;100.00
40650;BME280;26342;42.826;23.992;2024-02-28T04:18:01;95705.66;;;4.77;100.00
40650;BME280;26342;42.826;23.992;2024-02-28T04:20:26;95707.72;;;4.75;100.00
40650;BME280;26342;42.826;23.992;2024-02-28T04:22:52;95702.00;;;4.71;100.00
40650;BME280;26342;42.826;23.992;2024-02-28T04:25:18;95704.44;;;4.73;100.00
40650;BME280;26342;42.826;23.992;2024-02-28T04:27:43;95705.66;;;4.77;100.00
40650;BME280;26342;42.826;23.992;2024-02-28T04:30:09;95688.97;;;4.76;100.00
40650;BME280;26342;42.826;23.992;2024-02-28T04:32:36;95692.81;;;4.81;100.00
40650;BME280;26342;42.826;23.992;2024-02-28T04:35:01;95695.06;;;4.77;100.00
40650;BME280;26342;42.826;23.992;2024-02-28T04:37:28;95703.81;;;4.78;100.00
40650;BME280;26342;42.826;23.992;2024-02-28T04:39:53;95695.88;;;4.78;100.00
40650;BME280;26342;42.826;23.992;2024-02-28T04:42:19;95706.25;;;4.79;100.00
40650;BME280;26342;42.826;23.992;2024-02-28T04:44:45;95691.22;;;4.73;100.00
40650;BME280;26342;42.826;23.992;2024-02-28T04:47:10;95702.22;;;4.70;100.00
40650;BME280;26342;42.826;23.992;2024-02-28T04:49:37;95702.81;;;4.72;100.00
40650;BME280;26342;42.826;23.992;2024-02-28T04:52:03;95694.72;;;4.67;100.00
40650;BME280;26342;42.826;23.992;2024-02-28T04:54:29;95705.09;;;4.68;100.00
40650;BME280;26342;42.826;23.992;2024-02-28T04:56:55;95708.75;;;4.67;100.00
40650;BME280;26342;42.826;23.992;2024-02-28T04:59:20;95703.06;;;4.64;100.00
40650;BME280;26342;42.826;23.992;2024-02-28T05:01:45;95697.41;;;4.60;100.00
40650;BME280;26342;42.826;23.992;2024-02-28T05:04:12;95703.03;;;4.70;100.00
40650;BME280;26342;42.826;23.992;2024-02-28T05:06:38;95695.94;;;4.64;100.00
40650;BME280;26342;42.826;23.992;2024-02-28T05:09:03;95694.16;;;4.58;100.00
40650;BME280;26342;42.826;23.992;2024-02-28T05:11:29;95716.50;;;4.62;100.00
40650;BME280;26342;42.826;23.992;2024-02-28T05:13:54;95711.03;;;4.57;100.00
40650;BME280;26342;42.826;23.992;2024-02-28T05:16:20;95724.66;;;4.54;100.00
40650;BME280;26342;42.826;23.992;2024-02-28T05:18:45;95728.56;;;4.52;100.00
40650;BME280;26342;42.826;23.992;2024-02-28T05:21:12;95719.81;;;4.51;100.00
40650;BME280;26342;42.826;23.992;2024-02-28T05:23:37;95726.94;;;4.51;100.00
40650;BME280;26342;42.826;23.992;2024-02-28T05:26:03;95738.09;;;4.53;100.00
40650;BME280;26342;42.826;23.992;2024-02-28T05:28:35;95735.03;;;4.56;100.00
40650;BME280;26342;42.826;23.992;2024-02-28T05:31:23;95733.16;;;4.63;100.00
40650;BME280;26342;42.826;23.992;2024-02-28T05:33:54;95737.66;;;4.62;100.00
40650;BME280;26342;42.826;23.992;2024-02-28T05:36:31;95739.25;;;4.63;100.00
40650;BME280;26342;42.826;23.992;2024-02-28T05:38:57;95736.59;;;4.70;100.00
40650;BME280;26342;42.826;23.992;2024-02-28T05:41:23;95742.44;;;4.79;100.00
40650;BME280;26342;42.826;23.992;2024-02-28T05:43:49;95748.75;;;4.78;100.00
40650;BME280;26342;42.826;23.992;2024-02-28T05:46:15;95749.53;;;4.85;100.00
40650;BME280;26342;42.826;23.992;2024-02-28T05:48:41;95758.84;;;4.94;100.00
40650;BME280;26342;42.826;23.992;2024-02-28T05:51:07;95748.47;;;4.92;100.00
40650;BME280;26342;42.826;23.992;2024-02-28T05:53:33;95757.66;;;4.90;100.00
40650;BME280;26342;42.826;23.992;2024-02-28T05:56:02;95753.34;;;4.95;100.00
40650;BME280;26342;42.826;23.992;2024-02-28T05:58:28;95754.13;;;5.02;100.00
40650;BME280;26342;42.826;23.992;2024-02-28T06:00:54;95762.25;;;5.01;100.00
40650;BME280;26342;42.826;23.992;2024-02-28T06:03:19;95765.94;;;5.00;100.00
40650;BME280;26342;42.826;23.992;2024-02-28T06:05:45;95770.53;;;5.11;100.00
40650;BME280;26342;42.826;23.992;2024-02-28T06:08:11;95757.19;;;4.99;100.00
40650;BME280;26342;42.826;23.992;2024-02-28T06:10:36;95768.94;;;5.10;100.00
40650;BME280;26342;42.826;23.992;2024-02-28T06:13:03;95763.81;;;5.15;100.00
40650;BME280;26342;42.826;23.992;2024-02-28T06:15:28;95776.34;;;5.26;100.00
40650;BME280;26342;42.826;23.992;2024-02-28T06:17:57;95768.84;;;5.23;100.00
40650;BME280;26342;42.826;23.992;2024-02-28T06:20:22;95773.50;;;5.28;100.00
40650;BME280;26342;42.826;23.992;2024-02-28T06:22:47;95778.16;;;5.32;100.00
40650;BME280;26342;42.826;23.992;2024-02-28T06:25:13;95787.22;;;5.43;100.00
40650;BME280;26342;42.826;23.992;2024-02-28T06:27:44;95777.63;;;5.49;100.00
40650;BME280;26342;42.826;23.992;2024-02-28T06:30:10;95781.44;;;5.53;100.00
40650;BME280;26342;42.826;23.992;2024-02-28T06:32:37;95782.63;;;5.64;100.00
40650;BME280;26342;42.826;23.992;2024-02-28T06:35:03;95777.53;;;5.62;100.00
40650;BME280;26342;42.826;23.992;2024-02-28T06:37:29;95787.44;;;5.73;100.00
40650;BME280;26342;42.826;23.992;2024-02-28T06:39:54;95793.47;;;5.80;100.00
40650;BME280;26342;42.826;23.992;2024-02-28T06:42:20;95799.53;;;5.87;100.00
40650;BME280;26342;42.826;23.992;2024-02-28T06:44:45;95795.44;;;5.92;100.00
40650;BME280;26342;42.826;23.992;2024-02-28T06:47:10;95792.91;;;6.03;100.00
40650;BME280;26342;42.826;23.992;2024-02-28T06:49:36;95787.06;;;6.20;100.00
40650;BME280;26342;42.826;23.992;2024-02-28T06:52:01;95797.72;;;6.31;100.00
40650;BME280;26342;42.826;23.992;2024-02-28T06:54:27;95791.19;;;6.52;100.00
40650;BME280;26342;42.826;23.992;2024-02-28T06:56:53;95800.13;;;6.58;100.00
40650;BME280;26342;42.826;23.992;2024-02-28T06:59:19;95790.66;;;6.62;100.00
40650;BME280;26342;42.826;23.992;2024-02-28T07:01:44;95797.59;;;6.81;100.00
40650;BME280;26342;42.826;23.992;2024-02-28T07:04:09;95792.91;;;6.95;100.00
40650;BME280;26342;42.826;23.992;2024-02-28T07:06:35;95793.72;;;7.14;100.00
40650;BME280;26342;42.826;23.992;2024-02-28T07:09:00;95793.88;;;7.19;100.00
40650;BME280;26342;42.826;23.992;2024-02-28T07:11:26;95788.81;;;7.29;100.00
40650;BME280;26342;42.826;23.992;2024-02-28T07:13:51;95790.13;;;7.50;100.00
40650;BME280;26342;42.826;23.992;2024-02-28T07:16:17;95791.31;;;7.54;100.00
40650;BME280;26342;42.826;23.992;2024-02-28T07:18:42;95790.41;;;7.60;100.00
40650;BME280;26342;42.826;23.992;2024-02-28T07:21:07;95791.44;;;7.59;100.00
40650;BME280;26342;42.826;23.992;2024-02-28T07:23:33;95788.34;;;7.74;100.00
40650;BME280;26342;42.826;23.992;2024-02-28T07:25:58;95782.63;;;8.00;100.00
40650;BME280;26342;42.826;23.992;2024-02-28T07:28:24;95789.41;;;8.20;100.00
40650;BME280;26342;42.826;23.992;2024-02-28T07:30:50;95774.78;;;8.41;100.00
40650;BME280;26342;42.826;23.992;2024-02-28T07:33:15;95779.94;;;8.71;100.00
40650;BME280;26342;42.826;23.992;2024-02-28T07:35:47;95784.47;;;9.10;100.00
40650;BME280;26342;42.826;23.992;2024-02-28T07:38:13;95778.91;;;9.40;100.00
40650;BME280;26342;42.826;23.992;2024-02-28T07:40:38;95765.00;;;9.55;100.00
40650;BME280;26342;42.826;23.992;2024-02-28T07:43:04;95760.28;;;9.74;100.00
40650;BME280;26342;42.826;23.992;2024-02-28T07:45:29;95758.41;;;10.08;100.00
40650;BME280;26342;42.826;23.992;2024-02-28T07:47:54;95754.53;;;10.32;100.00
40650;BME280;26342;42.826;23.992;2024-02-28T07:50:20;95762.41;;;10.61;100.00
40650;BME280;26342;42.826;23.992;2024-02-28T07:52:45;95752.94;;;10.97;100.00
40650;BME280;26342;42.826;23.992;2024-02-28T07:55:11;95750.06;;;11.26;100.00
40650;BME280;26342;42.826;23.992;2024-02-28T07:57:36;95741.19;;;11.47;100.00
40650;BME280;26342;42.826;23.992;2024-02-28T08:00:02;95750.50;;;11.71;100.00
40650;BME280;26342;42.826;23.992;2024-02-28T08:02:28;95752.41;;;12.03;100.00
40650;BME280;26342;42.826;23.992;2024-02-28T08:04:53;95745.09;;;12.30;100.00
40650;BME280;26342;42.826;23.992;2024-02-28T08:07:18;95751.00;;;12.38;100.00
40650;BME280;26342;42.826;23.992;2024-02-28T08:09:44;95755.66;;;12.52;100.00
40650;BME280;26342;42.826;23.992;2024-02-28T08:12:09;95743.72;;;12.75;100.00
40650;BME280;26342;42.826;23.992;2024-02-28T08:14:35;95745.69;;;13.00;100.00
40650;BME280;26342;42.826;23.992;2024-02-28T08:17:00;95753.59;;;13.27;100.00
40650;BME280;26342;42.826;23.992;2024-02-28T08:19:25;95754.72;;;13.52;100.00
40650;BME280;26342;42.826;23.992;2024-02-28T08:21:51;95749.38;;;13.82;100.00
40650;BME280;26342;42.826;23.992;2024-02-28T08:24:17;95740.00;;;14.10;100.00
40650;BME280;26342;42.826;23.992;2024-02-28T08:26:42;95749.09;;;14.35;100.00
40650;BME280;26342;42.826;23.992;2024-02-28T08:29:08;95739.91;;;14.71;100.00
40650;BME280;26342;42.826;23.992;2024-02-28T08:31:39;95743.53;;;15.06;100.00
40650;BME280;26342;42.826;23.992;2024-02-28T08:34:05;95739.91;;;15.31;100.00
40650;BME280;26342;42.826;23.992;2024-02-28T08:36:30;95740.97;;;15.35;100.00
40650;BME280;26342;42.826;23.992;2024-02-28T08:38:56;95739.06;;;15.41;100.00
40650;BME280;26342;42.826;23.992;2024-02-28T08:41:21;95737.88;;;15.62;100.00
40650;BME280;26342;42.826;23.992;2024-02-28T08:43:46;95743.34;;;15.86;100.00
40650;BME280;26342;42.826;23.992;2024-02-28T08:46:15;95735.59;;;16.13;100.00
40650;BME280;26342;42.826;23.992;2024-02-28T08:48:43;95724.63;;;16.34;100.00
40650;BME280;26342;42.826;23.992;2024-02-28T08:51:09;95711.81;;;16.50;100.00
40650;BME280;26342;42.826;23.992;2024-02-28T08:53:34;95727.84;;;16.89;96.09
40650;BME280;26342;42.826;23.992;2024-02-28T08:56:00;95732.53;;;17.02;86.76
40650;BME280;26342;42.826;23.992;2024-02-28T08:58:25;95723.03;;;17.10;92.03
40650;BME280;26342;42.826;23.992;2024-02-28T09:00:51;95719.69;;;17.37;88.64
40650;BME280;26342;42.826;23.992;2024-02-28T09:03:16;95724.22;;;17.60;86.41
40650;BME280;26342;42.826;23.992;2024-02-28T09:05:41;95727.63;;;18.03;93.84
40650;BME280;26342;42.826;23.992;2024-02-28T09:08:07;95721.22;;;18.46;78.17
40650;BME280;26342;42.826;23.992;2024-02-28T09:10:32;95717.38;;;18.79;74.07
40650;BME280;26342;42.826;23.992;2024-02-28T09:12:59;95716.47;;;19.11;59.18
40650;BME280;26342;42.826;23.992;2024-02-28T09:15:25;95701.66;;;18.95;52.25
40650;BME280;26342;42.826;23.992;2024-02-28T09:17:50;95710.34;;;19.19;58.82
40650;BME280;26342;42.826;23.992;2024-02-28T09:20:16;95713.31;;;19.45;49.19
40650;BME280;26342;42.826;23.992;2024-02-28T09:22:42;95717.28;;;19.12;48.86
40650;BME280;26342;42.826;23.992;2024-02-28T09:25:08;95716.03;;;19.32;49.14
40650;BME280;26342;42.826;23.992;2024-02-28T09:27:34;95714.19;;;19.55;50.53
40650;BME280;26342;42.826;23.992;2024-02-28T09:30:00;95717.41;;;19.57;47.75
40650;BME280;26342;42.826;23.992;2024-02-28T09:32:26;95710.19;;;19.88;47.50
40650;BME280;26342;42.826;23.992;2024-02-28T09:34:52;95720.28;;;19.96;45.82
40650;BME280;26342;42.826;23.992;2024-02-28T09:37:17;95725.59;;;20.01;48.19
40650;BME280;26342;42.826;23.992;2024-02-28T09:39:43;95727.13;;;19.94;46.49
40650;BME280;26342;42.826;23.992;2024-02-28T09:42:09;95714.88;;;20.19;47.19
40650;BME280;26342;42.826;23.992;2024-02-28T09:44:36;95713.69;;;20.56;43.90
40650;BME280;26342;42.826;23.992;2024-02-28T09:47:02;95720.84;;;20.60;45.93
40650;BME280;26342;42.826;23.992;2024-02-28T09:49:31;95708.59;;;20.63;44.67
40650;BME280;26342;42.826;23.992;2024-02-28T09:51:58;95711.84;;;20.20;44.49
40650;BME280;26342;42.826;23.992;2024-02-28T09:54:24;95708.91;;;20.08;45.29
40650;BME280;26342;42.826;23.992;2024-02-28T09:56:50;95721.81;;;19.89;45.80
40650;BME280;26342;42.826;23.992;2024-02-28T09:59:17;95710.44;;;19.78;45.04
40650;BME280;26342;42.826;23.992;2024-02-28T10:01:47;95709.31;;;19.79;46.90
40650;BME280;26342;42.826;23.992;2024-02-28T10:04:17;95706.19;;;20.08;46.17
40650;BME280;26342;42.826;23.992;2024-02-28T10:06:42;95708.59;;;20.10;45.83
40650;BME280;26342;42.826;23.992;2024-02-28T10:09:08;95708.22;;;19.80;46.67
40650;BME280;26342;42.826;23.992;2024-02-28T10:11:33;95703.59;;;19.80;46.28
40650;BME280;26342;42.826;23.992;2024-02-28T10:14:00;95708.16;;;20.16;45.45
40650;BME280;26342;42.826;23.992;2024-02-28T10:16:26;95702.00;;;20.02;45.35
40650;BME280;26342;42.826;23.992;2024-02-28T10:18:52;95703.72;;;19.98;46.37
40650;BME280;26342;42.826;23.992;2024-02-28T10:21:17;95697.44;;;20.11;45.26
40650;BME280;26342;42.826;23.992;2024-02-28T10:23:43;95694.66;;;20.25;43.74
40650;BME280;26342;42.826;23.992;2024-02-28T10:26:11;95691.94;;;20.25;44.91
40650;BME280;26342;42.826;23.992;2024-02-28T10:28:38;95692.97;;;20.38;44.20
40650;BME280;26342;42.826;23.992;2024-02-28T10:31:05;95686.97;;;20.18;44.61
40650;BME280;26342;42.826;23.992;2024-02-28T10:33:31;95686.28;;;20.13;44.39
40650;BME280;26342;42.826;23.992;2024-02-28T10:35:59;95682.03;;;20.20;44.49
40650;BME280;26342;42.826;23.992;2024-02-28T10:38:26;95677.63;;;20.02;44.39
40650;BME280;26342;42.826;23.992;2024-02-28T10:40:53;95675.53;;;19.99;44.00
40650;BME280;26342;42.826;23.992;2024-02-28T10:43:19;95676.56;;;20.12;45.58
40650;BME280;26342;42.826;23.992;2024-02-28T10:45:45;95678.00;;;20.40;44.98
40650;BME280;26342;42.826;23.992;2024-02-28T10:48:14;95667.03;;;20.45;43.35
40650;BME280;26342;42.826;23.992;2024-02-28T10:50:39;95668.56;;;20.69;42.95
40650;BME280;26342;42.826;23.992;2024-02-28T10:53:12;95665.31;;;20.49;43.25
40650;BME280;26342;42.826;23.992;2024-02-28T10:55:40;95667.22;;;20.49;44.31
40650;BME280;26342;42.826;23.992;2024-02-28T10:58:08;95663.91;;;20.60;44.16
40650;BME280;26342;42.826;23.992;2024-02-28T11:00:36;95664.94;;;20.73;43.65
40650;BME280;26342;42.826;23.992;2024-02-28T11:03:04;95668.94;;;20.76;43.42
40650;BME280;26342;42.826;23.992;2024-02-28T11:05:37;95663.72;;;20.88;42.53
40650;BME280;26342;42.826;23.992;2024-02-28T11:08:10;95657.94;;;20.81;44.60
40650;BME280;26342;42.826;23.992;2024-02-28T11:10:42;95650.94;;;20.88;43.23
40650;BME280;26342;42.826;23.992;2024-02-28T11:13:08;95651.09;;;20.44;43.60
40650;BME280;26342;42.826;23.992;2024-02-28T11:15:36;95661.84;;;20.26;44.64
40650;BME280;26342;42.826;23.992;2024-02-28T11:18:08;95647.03;;;20.32;44.12
40650;BME280;26342;42.826;23.992;2024-02-28T11:20:36;95641.94;;;20.62;45.53
40650;BME280;26342;42.826;23.992;2024-02-28T11:23:01;95643.66;;;20.58;44.13
40650;BME280;26342;42.826;23.992;2024-02-28T11:25:26;95635.72;;;20.30;42.79
40650;BME280;26342;42.826;23.992;2024-02-28T11:27:52;95635.03;;;19.94;44.19
40650;BME280;26342;42.826;23.992;2024-02-28T11:30:17;95630.00;;;20.01;46.05
40650;BME280;26342;42.826;23.992;2024-02-28T11:32:43;95632.50;;;19.97;45.25
40650;BME280;26342;42.826;23.992;2024-02-28T11:35:09;95632.09;;;19.82;46.99
40650;BME280;26342;42.826;23.992;2024-02-28T11:37:38;95626.56;;;19.64;46.95
40650;BME280;26342;42.826;23.992;2024-02-28T11:40:07;95623.28;;;19.53;47.67
40650;BME280;26342;42.826;23.992;2024-02-28T11:42:34;95625.06;;;19.58;46.89
40650;BME280;26342;42.826;23.992;2024-02-28T11:44:59;95618.25;;;19.61;47.35
40650;BME280;26342;42.826;23.992;2024-02-28T11:47:25;95614.34;;;19.53;47.18
40650;BME280;26342;42.826;23.992;2024-02-28T11:49:51;95617.28;;;19.20;48.63
40650;BME280;26342;42.826;23.992;2024-02-28T11:52:16;95619.41;;;19.10;48.29
40650;BME280;26342;42.826;23.992;2024-02-28T11:54:41;95608.97;;;19.17;51.34
40650;BME280;26342;42.826;23.992;2024-02-28T11:57:07;95604.31;;;18.95;48.37
40650;BME280;26342;42.826;23.992;2024-02-28T11:59:33;95605.88;;;19.10;48.12
40650;BME280;26342;42.826;23.992;2024-02-28T12:01:58;95604.59;;;19.07;47.04
40650;BME280;26342;42.826;23.992;2024-02-28T12:04:24;95609.69;;;19.09;48.30
40650;BME280;26342;42.826;23.992;2024-02-28T12:06:53;95608.09;;;19.08;46.61
40650;BME280;26342;42.826;23.992;2024-02-28T12:09:18;95594.47;;;19.13;47.05
40650;BME280;26342;42.826;23.992;2024-02-28T12:11:43;95598.47;;;19.38;49.41
40650;BME280;26342;42.826;23.992;2024-02-28T12:14:09;95595.66;;;19.65;47.17
40650;BME280;26342;42.826;23.992;2024-02-28T12:16:39;95602.25;;;19.73;46.56
40650;BME280;26342;42.826;23.992;2024-02-28T12:19:11;95593.19;;;19.55;44.81
40650;BME280;26342;42.826;23.992;2024-02-28T12:21:37;95587.47;;;19.79;48.03
40650;BME280;26342;42.826;23.992;2024-02-28T12:24:12;95594.09;;;19.95;44.39
40650;BME280;26342;42.826;23.992;2024-02-28T12:26:38;95584.34;;;19.86;43.76
40650;BME280;26342;42.826;23.992;2024-02-28T12:29:04;95583.75;;;19.97;43.79
40650;BME280;26342;42.826;23.992;2024-02-28T12:31:30;95571.34;;;20.05;43.02
40650;BME280;26342;42.826;23.992;2024-02-28T12:33:55;95569.66;;;20.18;42.64
40650;BME280;26342;42.826;23.992;2024-02-28T12:36:21;95585.03;;;20.31;47.65
40650;BME280;26342;42.826;23.992;2024-02-28T12:38:47;95571.94;;;20.24;42.97
40650;BME280;26342;42.826;23.992;2024-02-28T12:41:12;95568.13;;;20.34;42.80
40650;BME280;26342;42.826;23.992;2024-02-28T12:43:38;95574.81;;;20.36;41.75